sensor_id;sensor_type;location;lat;lon;timestamp;pressure;altitude;pressure_sealevel;temperature;humidity
70468;BME280;57934;51.532;7.684;2023-07-20T00:01:59;100119.34;;;16.40;nan
70468;BME280;57934;51.532;7.684;2023-07-20T00:04:25;100117.34;;;16.35;nan
70468;BME280;57934;51.532;7.684;2023-07-20T00:06:51;100131.03;;;16.27;nan
70468;BME280;57934;51.532;7.684;2023-07-20T00:09:17;100126.63;;;16.33;nan
70468;BME280;57934;51.532;7.684;2023-07-20T00:11:49;100125.00;;;16.32;nan
70468;BME280;57934;51.532;7.684;2023-07-20T00:14:19;100130.22;;;16.27;nan
70468;BME280;57934;51.532;7.684;2023-07-20T00:16:46;100134.50;;;16.39;nan
70468;BME280;57934;51.532;7.684;2023-07-20T00:19:12;100128.47;;;16.44;nan
70468;BME280;57934;51.532;7.684;2023-07-20T00:21:38;100126.84;;;16.43;nan
70468;BME280;57934;51.532;7.684;2023-07-20T00:24:08;100121.88;;;16.46;nan
70468;BME280;57934;51.532;7.684;2023-07-20T00:26:34;100122.00;;;16.40;nan
70468;BME280;57934;51.532;7.684;2023-07-20T00:29:00;100124.31;;;16.36;nan
70468;BME280;57934;51.532;7.684;2023-07-20T00:31:26;100122.00;;;16.28;nan
70468;BME280;57934;51.532;7.684;2023-07-20T00:33:52;100113.34;;;16.33;nan
70468;BME280;57934;51.532;7.684;2023-07-20T00:36:19;100114.59;;;16.30;nan
70468;BME280;57934;51.532;7.684;2023-07-20T00:38:44;100119.00;;;16.36;nan
70468;BME280;57934;51.532;7.684;2023-07-20T00:41:10;100119.84;;;16.25;nan
70468;BME280;57934;51.532;7.684;2023-07-20T00:43:36;100120.19;;;16.29;nan
70468;BME280;57934;51.532;7.684;2023-07-20T00:46:03;100116.56;;;16.35;nan
70468;BME280;57934;51.532;7.684;2023-07-20T00:48:29;100112.97;;;16.41;nan
70468;BME280;57934;51.532;7.684;2023-07-20T00:50:57;100113.28;;;16.44;nan
70468;BME280;57934;51.532;7.684;2023-07-20T00:53:23;100119.66;;;16.43;nan
70468;BME280;57934;51.532;7.684;2023-07-20T00:55:49;100122.66;;;16.47;nan
70468;BME280;57934;51.532;7.684;2023-07-20T00:58:16;100116.03;;;16.50;nan
70468;BME280;57934;51.532;7.684;2023-07-20T01:00:41;100122.66;;;16.47;nan
70468;BME280;57934;51.532;7.684;2023-07-20T01:03:07;100116.88;;;16.50;nan
70468;BME280;57934;51.532;7.684;2023-07-20T01:09:33;100109.22;;;16.54;nan
70468;BME280;57934;51.532;7.684;2023-07-20T01:12:05;100108.22;;;16.43;nan
70468;BME280;57934;51.532;7.684;2023-07-20T01:14:34;100112.16;;;16.40;nan
70468;BME280;57934;51.532;7.684;2023-07-20T01:17:01;100106.81;;;16.40;nan
70468;BME280;57934;51.532;7.684;2023-07-20T01:19:27;100113.28;;;16.44;nan
70468;BME280;57934;51.532;7.684;2023-07-20T01:22:02;100113.09;;;16.34;nan
70468;BME280;57934;51.532;7.684;2023-07-20T01:25:07;100112.41;;;16.27;nan
70468;BME280;57934;51.532;7.684;2023-07-20T01:30:50;100108.06;;;16.09;nan
70468;BME280;57934;51.532;7.684;2023-07-20T01:33:19;100111.47;;;16.21;nan
70468;BME280;57934;51.532;7.684;2023-07-20T01:35:52;100106.91;;;16.05;nan
70468;BME280;57934;51.532;7.684;2023-07-20T01:38:20;100104.47;;;16.04;nan
70468;BME280;57934;51.532;7.684;2023-07-20T01:40:49;100099.97;;;16.04;nan
70468;BME280;57934;51.532;7.684;2023-07-20T01:43:15;100098.69;;;16.07;nan
70468;BME280;57934;51.532;7.684;2023-07-20T01:45:42;100104.59;;;16.09;nan
70468;BME280;57934;51.532;7.684;2023-07-20T01:48:09;100101.00;;;16.03;nan
70468;BME280;57934;51.532;7.684;2023-07-20T01:50:35;100098.22;;;16.10;nan
70468;BME280;57934;51.532;7.684;2023-07-20T01:53:01;100104.59;;;16.09;nan
70468;BME280;57934;51.532;7.684;2023-07-20T01:55:27;100105.38;;;16.09;nan
70468;BME280;57934;51.532;7.684;2023-07-20T01:57:55;100100.88;;;16.10;nan
70468;BME280;57934;51.532;7.684;2023-07-20T02:00:21;100104.00;;;16.18;nan
70468;BME280;57934;51.532;7.684;2023-07-20T02:02:50;100094.25;;;16.36;nan
70468;BME280;57934;51.532;7.684;2023-07-20T02:05:16;100095.88;;;16.25;nan
70468;BME280;57934;51.532;7.684;2023-07-20T02:07:43;100093.56;;;16.17;nan
70468;BME280;57934;51.532;7.684;2023-07-20T02:10:09;100088.94;;;16.24;nan
70468;BME280;57934;51.532;7.684;2023-07-20T02:12:35;100081.19;;;16.22;nan
70468;BME280;57934;51.532;7.684;2023-07-20T02:15:02;100085.13;;;16.20;nan
70468;BME280;57934;51.532;7.684;2023-07-20T02:17:28;100087.09;;;16.13;nan
70468;BME280;57934;51.532;7.684;2023-07-20T02:19:56;100091.03;;;16.10;nan
70468;BME280;57934;51.532;7.684;2023-07-20T02:22:23;100092.69;;;16.11;nan
70468;BME280;57934;51.532;7.684;2023-07-20T02:24:49;100088.72;;;16.14;nan
70468;BME280;57934;51.532;7.684;2023-07-20T02:27:16;100091.38;;;16.14;nan
70468;BME280;57934;51.532;7.684;2023-07-20T02:29:42;100086.06;;;16.14;nan
70468;BME280;57934;51.532;7.684;2023-07-20T02:32:10;100089.34;;;16.04;nan
70468;BME280;57934;51.532;7.684;2023-07-20T02:34:37;100080.19;;;16.12;nan
70468;BME280;57934;51.532;7.684;2023-07-20T02:37:03;100082.72;;;16.07;nan
70468;BME280;57934;51.532;7.684;2023-07-20T02:39:30;100084.56;;;16.06;nan
70468;BME280;57934;51.532;7.684;2023-07-20T02:41:56;100091.16;;;16.04;nan
70468;BME280;57934;51.532;7.684;2023-07-20T02:44:22;100089.56;;;16.03;nan
70468;BME280;57934;51.532;7.684;2023-07-20T02:46:49;100082.50;;;15.96;nan
70468;BME280;57934;51.532;7.684;2023-07-20T02:49:17;100089.00;;;16.01;nan
70468;BME280;57934;51.532;7.684;2023-07-20T02:51:43;100095.00;;;16.08;nan
70468;BME280;57934;51.532;7.684;2023-07-20T02:54:10;100091.66;;;16.01;nan
70468;BME280;57934;51.532;7.684;2023-07-20T02:56:36;100098.56;;;15.90;nan
70468;BME280;57934;51.532;7.684;2023-07-20T02:59:02;100099.75;;;15.94;nan
70468;BME280;57934;51.532;7.684;2023-07-20T03:01:28;100091.75;;;15.82;nan
70468;BME280;57934;51.532;7.684;2023-07-20T03:03:57;100106.47;;;15.73;nan
70468;BME280;57934;51.532;7.684;2023-07-20T03:06:23;100119.41;;;15.81;nan
70468;BME280;57934;51.532;7.684;2023-07-20T03:08:49;100120.66;;;15.79;nan
70468;BME280;57934;51.532;7.684;2023-07-20T03:11:18;100123.16;;;15.62;nan
70468;BME280;57934;51.532;7.684;2023-07-20T03:13:44;100127.94;;;15.60;nan
70468;BME280;57934;51.532;7.684;2023-07-20T03:16:12;100112.31;;;15.51;nan
70468;BME280;57934;51.532;7.684;2023-07-20T03:18:42;100114.00;;;15.22;nan
70468;BME280;57934;51.532;7.684;2023-07-20T03:21:08;100117.78;;;15.03;nan
70468;BME280;57934;51.532;7.684;2023-07-20T03:23:37;100118.34;;;15.05;nan
70468;BME280;57934;51.532;7.684;2023-07-20T03:26:03;100118.84;;;15.14;nan
70468;BME280;57934;51.532;7.684;2023-07-20T03:28:31;100117.53;;;15.04;nan
70468;BME280;57934;51.532;7.684;2023-07-20T03:30:57;100120.19;;;15.04;nan
70468;BME280;57934;51.532;7.684;2023-07-20T03:33:26;100127.00;;;15.12;nan
70468;BME280;57934;51.532;7.684;2023-07-20T03:35:52;100130.34;;;15.08;nan
70468;BME280;57934;51.532;7.684;2023-07-20T03:38:18;100135.44;;;15.09;nan
70468;BME280;57934;51.532;7.684;2023-07-20T03:40:55;100136.28;;;15.10;nan
70468;BME280;57934;51.532;7.684;2023-07-20T03:43:22;100138.09;;;15.09;nan
70468;BME280;57934;51.532;7.684;2023-07-20T03:45:48;100132.72;;;15.27;nan
70468;BME280;57934;51.532;7.684;2023-07-20T03:48:16;100126.25;;;15.23;nan
70468;BME280;57934;51.532;7.684;2023-07-20T03:50:44;100120.47;;;15.26;nan
70468;BME280;57934;51.532;7.684;2023-07-20T03:53:15;100124.53;;;15.29;nan
70468;BME280;57934;51.532;7.684;2023-07-20T03:55:44;100126.38;;;15.28;nan
70468;BME280;57934;51.532;7.684;2023-07-20T03:58:10;100122.56;;;15.36;nan
70468;BME280;57934;51.532;7.684;2023-07-20T04:00:35;100123.63;;;15.35;nan
70468;BME280;57934;51.532;7.684;2023-07-20T04:03:02;100125.00;;;15.38;nan
70468;BME280;57934;51.532;7.684;2023-07-20T04:05:28;100126.97;;;15.42;nan
70468;BME280;57934;51.532;7.684;2023-07-20T04:07:55;100125.81;;;15.50;nan
70468;BME280;57934;51.532;7.684;2023-07-20T04:10:21;100131.72;;;15.52;nan
70468;BME280;57934;51.532;7.684;2023-07-20T04:12:51;100135.66;;;15.38;nan
70468;BME280;57934;51.532;7.684;2023-07-20T04:15:17;100136.31;;;15.33;nan
70468;BME280;57934;51.532;7.684;2023-07-20T04:17:44;100146.69;;;15.23;nan
70468;BME280;57934;51.532;7.684;2023-07-20T04:20:11;100132.59;;;15.22;nan
70468;BME280;57934;51.532;7.684;2023-07-20T04:22:37;100138.50;;;15.24;nan
70468;BME280;57934;51.532;7.684;2023-07-20T04:25:04;100143.19;;;15.11;nan
70468;BME280;57934;51.532;7.684;2023-07-20T04:27:31;100143.53;;;15.14;nan
70468;BME280;57934;51.532;7.684;2023-07-20T04:30:00;100143.75;;;15.13;nan
70468;BME280;57934;51.532;7.684;2023-07-20T04:32:26;100139.94;;;15.09;nan
70468;BME280;57934;51.532;7.684;2023-07-20T04:34:52;100146.47;;;15.24;nan
70468;BME280;57934;51.532;7.684;2023-07-20T04:37:19;100146.91;;;15.10;nan
70468;BME280;57934;51.532;7.684;2023-07-20T04:39:46;100148.63;;;15.16;nan
70468;BME280;57934;51.532;7.684;2023-07-20T04:42:12;100149.66;;;15.15;nan
70468;BME280;57934;51.532;7.684;2023-07-20T04:44:39;100148.50;;;15.11;nan
70468;BME280;57934;51.532;7.684;2023-07-20T04:47:06;100155.56;;;15.17;nan
70468;BME280;57934;51.532;7.684;2023-07-20T04:49:35;100163.66;;;15.22;nan
70468;BME280;57934;51.532;7.684;2023-07-20T04:52:02;100159.41;;;15.33;nan
70468;BME280;57934;51.532;7.684;2023-07-20T04:54:28;100154.59;;;15.41;nan
70468;BME280;57934;51.532;7.684;2023-07-20T04:56:54;100164.53;;;15.46;nan
70468;BME280;57934;51.532;7.684;2023-07-20T04:59:21;100163.38;;;15.42;nan
70468;BME280;57934;51.532;7.684;2023-07-20T05:01:47;100163.28;;;15.48;nan
70468;BME280;57934;51.532;7.684;2023-07-20T05:04:14;100168.44;;;15.43;nan
70468;BME280;57934;51.532;7.684;2023-07-20T05:06:40;100167.38;;;15.33;nan
70468;BME280;57934;51.532;7.684;2023-07-20T05:09:06;100172.34;;;15.41;nan
70468;BME280;57934;51.532;7.684;2023-07-20T05:11:33;100171.19;;;15.37;nan
70468;BME280;57934;51.532;7.684;2023-07-20T05:14:00;100171.47;;;15.47;nan
70468;BME280;57934;51.532;7.684;2023-07-20T05:16:26;100170.66;;;15.46;nan
70468;BME280;57934;51.532;7.684;2023-07-20T05:18:53;100170.31;;;15.43;nan
70468;BME280;57934;51.532;7.684;2023-07-20T05:21:19;100175.94;;;15.35;nan
70468;BME280;57934;51.532;7.684;2023-07-20T05:23:45;100176.75;;;15.35;nan
70468;BME280;57934;51.532;7.684;2023-07-20T05:26:13;100170.19;;;15.49;nan
70468;BME280;57934;51.532;7.684;2023-07-20T05:28:39;100168.22;;;15.45;nan
70468;BME280;57934;51.532;7.684;2023-07-20T05:31:05;100174.47;;;15.50;nan
70468;BME280;57934;51.532;7.684;2023-07-20T05:33:32;100177.16;;;15.62;nan
70468;BME280;57934;51.532;7.684;2023-07-20T05:35:58;100181.47;;;15.75;nan
70468;BME280;57934;51.532;7.684;2023-07-20T05:38:24;100174.78;;;15.72;nan
70468;BME280;57934;51.532;7.684;2023-07-20T05:40:50;100185.28;;;15.79;nan
70468;BME280;57934;51.532;7.684;2023-07-20T05:43:15;100181.97;;;15.84;nan
70468;BME280;57934;51.532;7.684;2023-07-20T05:45:42;100186.47;;;16.07;nan
70468;BME280;57934;51.532;7.684;2023-07-20T05:48:09;100187.94;;;16.14;nan
70468;BME280;57934;51.532;7.684;2023-07-20T05:50:42;100191.78;;;16.18;nan
70468;BME280;57934;51.532;7.684;2023-07-20T05:53:09;100196.41;;;15.99;nan
70468;BME280;57934;51.532;7.684;2023-07-20T05:55:35;100197.00;;;16.02;nan
70468;BME280;57934;51.532;7.684;2023-07-20T05:58:01;100197.47;;;15.87;nan
70468;BME280;57934;51.532;7.684;2023-07-20T06:00:27;100206.22;;;15.75;nan
70468;BME280;57934;51.532;7.684;2023-07-20T06:02:53;100203.88;;;15.67;nan
70468;BME280;57934;51.532;7.684;2023-07-20T06:05:21;100209.00;;;15.69;nan
70468;BME280;57934;51.532;7.684;2023-07-20T06:07:52;100208.66;;;15.77;nan
70468;BME280;57934;51.532;7.684;2023-07-20T06:10:20;100211.31;;;15.77;nan
70468;BME280;57934;51.532;7.684;2023-07-20T06:12:46;100221.34;;;15.75;nan
70468;BME280;57934;51.532;7.684;2023-07-20T06:15:30;100225.31;;;15.72;nan
70468;BME280;57934;51.532;7.684;2023-07-20T06:17:57;100230.38;;;15.74;nan
70468;BME280;57934;51.532;7.684;2023-07-20T06:20:24;100226.22;;;15.78;nan
70468;BME280;57934;51.532;7.684;2023-07-20T06:22:50;100235.09;;;15.72;nan
70468;BME280;57934;51.532;7.684;2023-07-20T06:25:16;100236.66;;;15.80;nan
70468;BME280;57934;51.532;7.684;2023-07-20T06:27:42;100236.28;;;15.88;nan
70468;BME280;57934;51.532;7.684;2023-07-20T06:30:09;100236.75;;;15.96;nan
70468;BME280;57934;51.532;7.684;2023-07-20T06:32:35;100231.91;;;15.93;nan
70468;BME280;57934;51.532;7.684;2023-07-20T06:35:01;100241.13;;;15.79;nan
70468;BME280;57934;51.532;7.684;2023-07-20T06:37:27;100245.06;;;15.77;nan
70468;BME280;57934;51.532;7.684;2023-07-20T06:39:53;100239.03;;;15.69;nan
70468;BME280;57934;51.532;7.684;2023-07-20T06:42:19;100240.47;;;15.54;nan
70468;BME280;57934;51.532;7.684;2023-07-20T06:44:45;100240.97;;;15.62;nan
70468;BME280;57934;51.532;7.684;2023-07-20T06:47:11;100243.56;;;15.50;nan
70468;BME280;57934;51.532;7.684;2023-07-20T06:49:38;100245.78;;;15.54;nan
70468;BME280;57934;51.532;7.684;2023-07-20T06:52:04;100241.34;;;15.47;nan
70468;BME280;57934;51.532;7.684;2023-07-20T06:54:30;100249.84;;;15.56;nan
70468;BME280;57934;51.532;7.684;2023-07-20T06:56:56;100241.53;;;15.64;nan
70468;BME280;57934;51.532;7.684;2023-07-20T06:59:22;100235.16;;;15.95;nan
70468;BME280;57934;51.532;7.684;2023-07-20T07:01:50;100243.03;;;16.02;nan
70468;BME280;57934;51.532;7.684;2023-07-20T07:04:16;100240.94;;;16.16;nan
70468;BME280;57934;51.532;7.684;2023-07-20T07:06:41;100246.03;;;16.06;nan
70468;BME280;57934;51.532;7.684;2023-07-20T07:09:08;100245.56;;;16.20;nan
70468;BME280;57934;51.532;7.684;2023-07-20T07:11:34;100245.22;;;16.40;nan
70468;BME280;57934;51.532;7.684;2023-07-20T07:14:00;100240.69;;;16.64;nan
70468;BME280;57934;51.532;7.684;2023-07-20T07:16:26;100249.47;;;16.88;nan
70468;BME280;57934;51.532;7.684;2023-07-20T07:18:52;100244.56;;;16.97;nan
70468;BME280;57934;51.532;7.684;2023-07-20T07:21:18;100250.34;;;17.34;nan
70468;BME280;57934;51.532;7.684;2023-07-20T07:23:45;100244.84;;;17.70;nan
70468;BME280;57934;51.532;7.684;2023-07-20T07:26:11;100248.34;;;18.04;nan
70468;BME280;57934;51.532;7.684;2023-07-20T07:28:37;100251.66;;;18.11;nan
70468;BME280;57934;51.532;7.684;2023-07-20T07:31:06;100253.19;;;18.24;nan
70468;BME280;57934;51.532;7.684;2023-07-20T07:33:33;100253.34;;;18.34;nan
70468;BME280;57934;51.532;7.684;2023-07-20T07:35:59;100255.34;;;18.44;nan
70468;BME280;57934;51.532;7.684;2023-07-20T07:38:25;100261.28;;;18.12;nan
70468;BME280;57934;51.532;7.684;2023-07-20T07:40:50;100265.28;;;19.09;nan
70468;BME280;57934;51.532;7.684;2023-07-20T07:43:16;100259.25;;;19.19;nan
70468;BME280;57934;51.532;7.684;2023-07-20T07:45:42;100265.88;;;18.89;nan
70468;BME280;57934;51.532;7.684;2023-07-20T07:48:08;100261.09;;;18.35;nan
70468;BME280;57934;51.532;7.684;2023-07-20T07:50:37;100278.91;;;18.13;nan
70468;BME280;57934;51.532;7.684;2023-07-20T07:53:03;100280.56;;;17.97;nan
70468;BME280;57934;51.532;7.684;2023-07-20T07:55:29;100279.25;;;18.00;nan
70468;BME280;57934;51.532;7.684;2023-07-20T07:57:55;100285.00;;;18.08;nan
70468;BME280;57934;51.532;7.684;2023-07-20T08:00:21;100285.03;;;18.47;nan
70468;BME280;57934;51.532;7.684;2023-07-20T08:02:47;100285.84;;;18.48;nan
70468;BME280;57934;51.532;7.684;2023-07-20T08:05:14;100286.34;;;18.45;nan
70468;BME280;57934;51.532;7.684;2023-07-20T08:07:40;100290.06;;;17.93;nan
70468;BME280;57934;51.532;7.684;2023-07-20T08:10:06;100295.00;;;17.56;nan
70468;BME280;57934;51.532;7.684;2023-07-20T08:12:33;100293.38;;;17.55;nan
70468;BME280;57934;51.532;7.684;2023-07-20T08:14:59;100294.34;;;18.28;nan
70468;BME280;57934;51.532;7.684;2023-07-20T08:17:25;100286.94;;;20.16;nan
70468;BME280;57934;51.532;7.684;2023-07-20T08:19:51;100286.03;;;21.78;nan
70468;BME280;57934;51.532;7.684;2023-07-20T08:22:17;100291.56;;;22.99;nan
70468;BME280;57934;51.532;7.684;2023-07-20T08:24:43;100281.25;;;23.12;nan
70468;BME280;57934;51.532;7.684;2023-07-20T08:27:09;100287.53;;;24.97;nan
70468;BME280;57934;51.532;7.684;2023-07-20T08:29:36;100285.63;;;26.25;nan
70468;BME280;57934;51.532;7.684;2023-07-20T08:32:02;100299.22;;;26.06;nan
70468;BME280;57934;51.532;7.684;2023-07-20T08:34:30;100288.41;;;24.92;nan
70468;BME280;57934;51.532;7.684;2023-07-20T08:36:56;100289.78;;;24.08;nan
70468;BME280;57934;51.532;7.684;2023-07-20T08:39:23;100295.88;;;24.18;nan
70468;BME280;57934;51.532;7.684;2023-07-20T08:41:50;100296.34;;;23.57;nan
70468;BME280;57934;51.532;7.684;2023-07-20T08:44:16;100297.19;;;23.47;nan
70468;BME280;57934;51.532;7.684;2023-07-20T08:46:42;100299.44;;;24.72;nan
70468;BME280;57934;51.532;7.684;2023-07-20T08:49:10;100300.66;;;25.84;nan
70468;BME280;57934;51.532;7.684;2023-07-20T08:51:37;100304.75;;;25.63;nan
70468;BME280;57934;51.532;7.684;2023-07-20T08:54:04;100299.84;;;25.27;nan
70468;BME280;57934;51.532;7.684;2023-07-20T08:56:31;100298.91;;;24.94;nan
70468;BME280;57934;51.532;7.684;2023-07-20T08:58:59;100301.47;;;25.04;nan
70468;BME280;57934;51.532;7.684;2023-07-20T09:01:26;100296.38;;;26.30;nan
70468;BME280;57934;51.532;7.684;2023-07-20T09:03:52;100305.53;;;27.67;nan
70468;BME280;57934;51.532;7.684;2023-07-20T09:06:18;100304.25;;;28.80;nan
70468;BME280;57934;51.532;7.684;2023-07-20T09:08:45;100306.19;;;28.40;nan
70468;BME280;57934;51.532;7.684;2023-07-20T09:11:11;100293.84;;;29.48;nan
70468;BME280;57934;51.532;7.684;2023-07-20T09:13:38;100300.28;;;30.42;nan
70468;BME280;57934;51.532;7.684;2023-07-20T09:16:04;100297.59;;;31.31;nan
70468;BME280;57934;51.532;7.684;2023-07-20T09:18:32;100295.69;;;31.23;nan
70468;BME280;57934;51.532;7.684;2023-07-20T09:20:59;100297.50;;;31.61;nan
70468;BME280;57934;51.532;7.684;2023-07-20T09:23:36;100297.88;;;30.41;nan
70468;BME280;57934;51.532;7.684;2023-07-20T09:26:11;100291.41;;;31.76;nan
70468;BME280;57934;51.532;7.684;2023-07-20T09:28:52;100289.97;;;32.24;nan
70468;BME280;57934;51.532;7.684;2023-07-20T09:31:19;100286.72;;;31.23;nan
70468;BME280;57934;51.532;7.684;2023-07-20T09:33:46;100298.03;;;30.83;nan
70468;BME280;57934;51.532;7.684;2023-07-20T09:36:13;100292.63;;;32.33;nan
70468;BME280;57934;51.532;7.684;2023-07-20T09:38:42;100290.22;;;31.65;nan
70468;BME280;57934;51.532;7.684;2023-07-20T09:41:13;100293.53;;;29.49;nan
70468;BME280;57934;51.532;7.684;2023-07-20T09:43:41;100297.56;;;27.70;nan
70468;BME280;57934;51.532;7.684;2023-07-20T09:46:08;100285.84;;;25.63;nan
70468;BME280;57934;51.532;7.684;2023-07-20T09:48:34;100290.88;;;24.65;nan
70468;BME280;57934;51.532;7.684;2023-07-20T09:51:01;100282.84;;;26.30;nan
70468;BME280;57934;51.532;7.684;2023-07-20T09:53:28;100277.56;;;28.02;nan
70468;BME280;57934;51.532;7.684;2023-07-20T09:55:54;100283.16;;;29.78;nan
70468;BME280;57934;51.532;7.684;2023-07-20T09:58:21;100283.69;;;28.17;nan
70468;BME280;57934;51.532;7.684;2023-07-20T10:00:50;100295.63;;;28.38;nan
70468;BME280;57934;51.532;7.684;2023-07-20T10:03:22;100297.03;;;28.67;nan
70468;BME280;57934;51.532;7.684;2023-07-20T10:05:56;100297.47;;;28.29;nan
70468;BME280;57934;51.532;7.684;2023-07-20T10:08:26;100287.56;;;27.34;nan
70468;BME280;57934;51.532;7.684;2023-07-20T10:10:57;100289.09;;;28.39;nan
70468;BME280;57934;51.532;7.684;2023-07-20T10:13:29;100284.63;;;30.31;nan
70468;BME280;57934;51.532;7.684;2023-07-20T10:16:01;100295.91;;;31.18;nan
70468;BME280;57934;51.532;7.684;2023-07-20T10:19:03;100287.88;;;32.54;nan
70468;BME280;57934;51.532;7.684;2023-07-20T10:21:32;100286.06;;;32.59;nan
70468;BME280;57934;51.532;7.684;2023-07-20T10:23:59;100285.50;;;33.30;nan
70468;BME280;57934;51.532;7.684;2023-07-20T10:26:26;100277.94;;;33.52;nan
70468;BME280;57934;51.532;7.684;2023-07-20T10:28:52;100279.19;;;33.01;nan
70468;BME280;57934;51.532;7.684;2023-07-20T10:31:19;100282.22;;;34.09;nan
70468;BME280;57934;51.532;7.684;2023-07-20T10:33:46;100269.94;;;34.18;nan
70468;BME280;57934;51.532;7.684;2023-07-20T10:36:12;100279.84;;;34.39;nan
70468;BME280;57934;51.532;7.684;2023-07-20T10:38:39;100266.16;;;34.23;nan
70468;BME280;57934;51.532;7.684;2023-07-20T10:41:28;100271.28;;;34.40;nan
70468;BME280;57934;51.532;7.684;2023-07-20T10:43:58;100268.97;;;34.11;nan
70468;BME280;57934;51.532;7.684;2023-07-20T10:49:10;100265.03;;;36.34;nan
70468;BME280;57934;51.532;7.684;2023-07-20T10:51:47;100256.63;;;36.23;nan
70468;BME280;57934;51.532;7.684;2023-07-20T10:56:43;100254.25;;;35.37;nan
70468;BME280;57934;51.532;7.684;2023-07-20T11:01:55;100251.47;;;33.56;nan
70468;BME280;57934;51.532;7.684;2023-07-20T11:04:41;100268.25;;;33.01;nan
70468;BME280;57934;51.532;7.684;2023-07-20T11:07:08;100251.44;;;31.47;nan
70468;BME280;57934;51.532;7.684;2023-07-20T11:09:37;100256.38;;;31.99;nan
70468;BME280;57934;51.532;7.684;2023-07-20T11:12:14;100252.34;;;32.30;nan
70468;BME280;57934;51.532;7.684;2023-07-20T11:14:53;100259.47;;;33.08;nan
70468;BME280;57934;51.532;7.684;2023-07-20T11:17:20;100255.94;;;31.76;nan
70468;BME280;57934;51.532;7.684;2023-07-20T11:19:48;100258.00;;;31.79;nan
70468;BME280;57934;51.532;7.684;2023-07-20T11:22:19;100250.72;;;32.17;nan
70468;BME280;57934;51.532;7.684;2023-07-20T11:24:45;100237.97;;;33.07;nan
70468;BME280;57934;51.532;7.684;2023-07-20T11:27:11;100238.81;;;32.46;nan
70468;BME280;57934;51.532;7.684;2023-07-20T11:29:37;100247.88;;;32.25;nan
70468;BME280;57934;51.532;7.684;2023-07-20T11:32:04;100241.97;;;32.85;nan
70468;BME280;57934;51.532;7.684;2023-07-20T11:34:31;100238.03;;;32.58;nan
70468;BME280;57934;51.532;7.684;2023-07-20T11:36:58;100235.38;;;32.24;nan
70468;BME280;57934;51.532;7.684;2023-07-20T11:39:24;100234.13;;;32.22;nan
70468;BME280;57934;51.532;7.684;2023-07-20T11:41:54;100237.22;;;32.57;nan
70468;BME280;57934;51.532;7.684;2023-07-20T11:44:22;100228.81;;;32.50;nan
70468;BME280;57934;51.532;7.684;2023-07-20T11:47:10;100226.38;;;32.12;nan
70468;BME280;57934;51.532;7.684;2023-07-20T11:49:44;100227.09;;;32.08;nan
70468;BME280;57934;51.532;7.684;2023-07-20T11:52:16;100233.28;;;31.09;nan
70468;BME280;57934;51.532;7.684;2023-07-20T11:54:43;100230.25;;;32.35;nan
70468;BME280;57934;51.532;7.684;2023-07-20T11:57:19;100227.88;;;31.64;nan
70468;BME280;57934;51.532;7.684;2023-07-20T11:59:56;100224.88;;;31.90;nan
70468;BME280;57934;51.532;7.684;2023-07-20T12:02:27;100218.28;;;31.57;nan
70468;BME280;57934;51.532;7.684;2023-07-20T12:04:54;100216.31;;;30.53;nan
70468;BME280;57934;51.532;7.684;2023-07-20T12:07:21;100212.63;;;28.86;nan
70468;BME280;57934;51.532;7.684;2023-07-20T12:10:07;100210.84;;;27.70;nan
70468;BME280;57934;51.532;7.684;2023-07-20T12:12:44;100214.75;;;26.83;nan
70468;BME280;57934;51.532;7.684;2023-07-20T12:17:48;100213.41;;;25.84;nan
70468;BME280;57934;51.532;7.684;2023-07-20T12:20:25;100216.53;;;25.39;nan
70468;BME280;57934;51.532;7.684;2023-07-20T12:22:52;100209.38;;;25.49;nan
70468;BME280;57934;51.532;7.684;2023-07-20T12:25:18;100210.59;;;25.37;nan
70468;BME280;57934;51.532;7.684;2023-07-20T12:27:45;100210.63;;;25.18;nan
70468;BME280;57934;51.532;7.684;2023-07-20T12:30:12;100221.53;;;24.89;nan
70468;BME280;57934;51.532;7.684;2023-07-20T12:32:39;100202.22;;;24.34;nan
70468;BME280;57934;51.532;7.684;2023-07-20T12:35:05;100209.25;;;24.30;nan
70468;BME280;57934;51.532;7.684;2023-07-20T12:37:32;100204.34;;;24.61;nan
70468;BME280;57934;51.532;7.684;2023-07-20T12:39:58;100206.19;;;24.66;nan
70468;BME280;57934;51.532;7.684;2023-07-20T12:42:24;100196.47;;;24.17;nan
70468;BME280;57934;51.532;7.684;2023-07-20T12:44:50;100197.00;;;24.43;nan
70468;BME280;57934;51.532;7.684;2023-07-20T12:47:17;100196.84;;;24.58;nan
70468;BME280;57934;51.532;7.684;2023-07-20T12:49:44;100203.22;;;24.38;nan
70468;BME280;57934;51.532;7.684;2023-07-20T12:52:11;100193.50;;;23.55;nan
70468;BME280;57934;51.532;7.684;2023-07-20T12:54:37;100188.81;;;24.29;nan
70468;BME280;57934;51.532;7.684;2023-07-20T12:57:03;100189.63;;;24.54;nan
70468;BME280;57934;51.532;7.684;2023-07-20T12:59:29;100185.47;;;24.61;nan
70468;BME280;57934;51.532;7.684;2023-07-20T13:01:55;100187.44;;;24.74;nan
70468;BME280;57934;51.532;7.684;2023-07-20T13:04:21;100184.47;;;24.04;nan
70468;BME280;57934;51.532;7.684;2023-07-20T13:06:47;100191.28;;;23.67;nan
70468;BME280;57934;51.532;7.684;2023-07-20T13:09:13;100189.63;;;24.00;nan
70468;BME280;57934;51.532;7.684;2023-07-20T13:11:39;100179.19;;;24.18;nan
70468;BME280;57934;51.532;7.684;2023-07-20T13:14:04;100180.75;;;24.24;nan
70468;BME280;57934;51.532;7.684;2023-07-20T13:16:30;100184.28;;;23.95;nan
70468;BME280;57934;51.532;7.684;2023-07-20T13:18:56;100182.13;;;23.68;nan
70468;BME280;57934;51.532;7.684;2023-07-20T13:21:23;100185.09;;;23.62;nan
70468;BME280;57934;51.532;7.684;2023-07-20T13:23:50;100181.13;;;23.54;nan
70468;BME280;57934;51.532;7.684;2023-07-20T13:26:16;100181.53;;;23.37;nan
70468;BME280;57934;51.532;7.684;2023-07-20T13:28:42;100182.31;;;23.38;nan
70468;BME280;57934;51.532;7.684;2023-07-20T13:31:08;100178.56;;;23.39;nan